Time;durP1;ratioP1;P1;durP2;ratioP2;P2;SDS_P1;SDS_P2;PMS_P1;PMS_P2;Temp;Humidity;BMP_temperature;BMP_pressure;BME280_temperature;BME280_humidity;BME280_pressure;Samples;Min_cycle;Max_cycle;Signal;HPM_P1;HPM_P2
2022/02/27 00:08:17;;;;;;;50.7;61.5;;;;;;;-0.8;85.5;100370;;;;
2022/02/27 00:19:17;;;;;;;50.7;61.5;;;;;;;-1;85.2;100380;;;;
2022/02/27 00:30:17;;;;;;;50.7;61.5;;;;;;;-1;85;100380;;;;
2022/02/27 00:40:17;;;;;;;47;53.5;;;;;;;-1;85.5;100390;;;;
2022/02/27 00:50:17;;;;;;;47;53.5;;;;;;;-1.1;84.9;100380;;;;
2022/02/27 01:01:17;;;;;;;47;53.5;;;;;;;-1.3;84.5;100380;;;;
2022/02/27 01:11:17;;;;;;;47.2;57.6;;;;;;;-1.5;84.4;100380;;;;
2022/02/27 01:21:17;;;;;;;47.2;57.6;;;;;;;-1.7;84.3;100390;;;;
2022/02/27 01:32:17;;;;;;;47.2;57.6;;;;;;;-1.8;84.2;100390;;;;
2022/02/27 01:42:17;;;;;;;48.7;61.7;;;;;;;-1.9;84.3;100380;;;;
2022/02/27 01:53:17;;;;;;;48.7;61.7;;;;;;;-1.9;85.2;100380;;;;
2022/02/27 02:03:17;;;;;;;48.7;61.7;;;;;;;-2;85.1;100380;;;;
2022/02/27 02:14:17;;;;;;;61.9;76.3;;;;;;;-1.9;85.3;100390;;;;
2022/02/27 02:24:17;;;;;;;61.9;76.3;;;;;;;-2;85.5;100390;;;;
2022/02/27 02:35:17;;;;;;;48.6;62.4;;;;;;;-2;85.6;100400;;;;
2022/02/27 02:46:17;;;;;;;48.6;62.4;;;;;;;-1.9;85.8;100400;;;;
2022/02/27 02:57:17;;;;;;;48.6;62.4;;;;;;;-1.9;85.9;100410;;;;
2022/02/27 03:08:17;;;;;;;41.2;52.1;;;;;;;-1.8;86.2;100410;;;;
2022/02/27 03:18:17;;;;;;;41.2;52.1;;;;;;;-1.5;86.6;100410;;;;
2022/02/27 03:29:17;;;;;;;41.2;52.1;;;;;;;-1.2;86.9;100410;;;;
2022/02/27 03:40:17;;;;;;;41.6;53.4;;;;;;;-0.9;86.7;100420;;;;
2022/02/27 03:50:17;;;;;;;41.6;53.4;;;;;;;-0.7;86.3;100420;;;;
2022/02/27 04:01:17;;;;;;;41.6;53.4;;;;;;;-0.8;85.3;100430;;;;
2022/02/27 04:12:17;;;;;;;36.5;41.9;;;;;;;-1.1;84.5;100440;;;;
2022/02/27 04:23:17;;;;;;;36.5;41.9;;;;;;;-1.3;84.3;100430;;;;
2022/02/27 04:33:18;;;;;;;36.5;41.9;;;;;;;-1.4;84.5;100430;;;;
2022/02/27 04:44:17;;;;;;;34.4;42.5;;;;;;;-1.4;84.8;100430;;;;
2022/02/27 04:54:17;;;;;;;34.4;42.5;;;;;;;-1.5;84.8;100440;;;;
2022/02/27 05:04:17;;;;;;;35.5;40.5;;;;;;;-1.5;84.8;100450;;;;
2022/02/27 05:14:17;;;;;;;35.5;40.5;;;;;;;-1.7;84.5;100450;;;;
2022/02/27 05:24:17;;;;;;;35.5;40.5;;;;;;;-1.7;84.7;100460;;;;
2022/02/27 05:35:17;;;;;;;36.4;44.8;;;;;;;-1.8;84.2;100460;;;;
2022/02/27 05:46:17;;;;;;;36.4;44.8;;;;;;;-2.1;83.4;100460;;;;
2022/02/27 05:57:17;;;;;;;36.4;44.8;;;;;;;-2.2;83.7;100460;;;;
2022/02/27 06:07:17;;;;;;;42.3;49.6;;;;;;;-2.2;83.7;100480;;;;
2022/02/27 06:18:17;;;;;;;42.3;49.6;;;;;;;-2.1;83.8;100500;;;;
2022/02/27 06:28:17;;;;;;;42.3;49.6;;;;;;;-2;83.7;100510;;;;
2022/02/27 06:39:17;;;;;;;49.1;56.4;;;;;;;-1.9;83.6;100530;;;;
2022/02/27 06:50:17;;;;;;;49.1;56.4;;;;;;;-1.8;83.4;100540;;;;
2022/02/27 07:00:17;;;;;;;49.1;56.4;;;;;;;-1.6;83.4;100550;;;;
2022/02/27 07:10:17;;;;;;;81.2;94.8;;;;;;;-1.6;83.4;100560;;;;
2022/02/27 07:21:17;;;;;;;81.2;94.8;;;;;;;-1.1;84.2;100560;;;;
2022/02/27 07:31:17;;;;;;;81.2;94.8;;;;;;;-0.7;84.4;100560;;;;
2022/02/27 07:42:17;;;;;;;62.8;70;;;;;;;-0.5;84.1;100560;;;;
2022/02/27 07:53:17;;;;;;;62.8;70;;;;;;;0;84.5;100560;;;;
2022/02/27 08:03:17;;;;;;;47.8;55;;;;;;;0.5;84.7;100560;;;;
2022/02/27 08:13:17;;;;;;;47.8;55;;;;;;;1.1;84.4;100560;;;;
2022/02/27 08:23:18;;;;;;;47.8;55;;;;;;;1.5;82.3;100560;;;;
2022/02/27 08:33:17;;;;;;;38.6;45.8;;;;;;;1.9;81.4;100560;;;;
2022/02/27 08:44:17;;;;;;;38.6;45.8;;;;;;;2.3;81.2;100560;;;;
2022/02/27 08:54:17;;;;;;;38.6;45.8;;;;;;;2.2;78.2;100550;;;;
2022/02/27 09:05:18;;;;;;;29.1;34.5;;;;;;;2.3;77.7;100560;;;;
2022/02/27 09:15:17;;;;;;;29.1;34.5;;;;;;;2.6;76.8;100550;;;;
2022/02/27 09:25:17;;;;;;;29.1;34.5;;;;;;;3;74.7;100550;;;;
2022/02/27 09:35:17;;;;;;;21.8;26.1;;;;;;;3.4;73.7;100550;;;;
2022/02/27 09:46:19;;;;;;;21.8;26.1;;;;;;;3.8;71;100550;;;;
2022/02/27 09:57:17;;;;;;;21.8;26.1;;;;;;;3.9;69.9;100540;;;;
2022/02/27 10:08:17;;;;;;;16.2;21.4;;;;;;;4.5;68.4;100530;;;;
2022/02/27 10:18:17;;;;;;;16.2;21.4;;;;;;;4.6;66.8;100520;;;;
2022/02/27 10:28:17;;;;;;;16.2;21.4;;;;;;;5.3;64.5;100510;;;;
2022/02/27 10:39:17;;;;;;;10.6;15.8;;;;;;;5.3;60.2;100490;;;;
2022/02/27 10:49:17;;;;;;;10.6;15.8;;;;;;;5.6;57.8;100480;;;;
2022/02/27 11:00:19;;;;;;;10.6;15.8;;;;;;;6.3;55.6;100460;;;;
2022/02/27 11:11:17;;;;;;;11.1;13.7;;;;;;;6.3;54.2;100450;;;;
2022/02/27 11:21:18;;;;;;;11.1;13.7;;;;;;;6.8;52.9;100430;;;;
2022/02/27 11:31:17;;;;;;;11.1;13.7;;;;;;;7;52.6;100420;;;;
2022/02/27 11:41:17;;;;;;;8;10.3;;;;;;;6.4;53.4;100430;;;;
2022/02/27 11:51:17;;;;;;;8;10.3;;;;;;;6.1;54.4;100420;;;;
2022/02/27 12:02:17;;;;;;;8.4;11.5;;;;;;;6.2;54.7;100400;;;;
2022/02/27 12:12:17;;;;;;;8.4;11.5;;;;;;;6.4;52.8;100390;;;;
2022/02/27 12:23:17;;;;;;;8.4;11.5;;;;;;;6.1;52.3;100390;;;;
2022/02/27 12:34:18;;;;;;;11.7;17.2;;;;;;;6.3;51.9;100380;;;;
2022/02/27 12:45:17;;;;;;;11.7;17.2;;;;;;;6.6;50.5;100370;;;;
2022/02/27 12:55:18;;;;;;;11.7;17.2;;;;;;;6.7;48.1;100370;;;;
2022/02/27 13:05:17;;;;;;;11.6;15.7;;;;;;;6.4;48.3;100370;;;;
2022/02/27 13:16:17;;;;;;;11.6;15.7;;;;;;;6.3;47.3;100370;;;;
2022/02/27 13:27:17;;;;;;;11.6;15.7;;;;;;;5.7;49.2;100380;;;;
2022/02/27 13:38:17;;;;;;;24.1;28.8;;;;;;;5.4;54;100370;;;;
2022/02/27 13:48:17;;;;;;;24.1;28.8;;;;;;;5.4;56.3;100370;;;;
2022/02/27 13:58:17;;;;;;;24.1;28.8;;;;;;;5.3;57.7;100360;;;;
2022/02/27 14:09:17;;;;;;;25.3;29.7;;;;;;;5.3;59.4;100360;;;;
2022/02/27 14:20:17;;;;;;;25.3;29.7;;;;;;;5.3;57.6;100350;;;;
2022/02/27 14:31:18;;;;;;;25.3;29.7;;;;;;;5.3;57.5;100340;;;;
2022/02/27 14:41:17;;;;;;;9.4;11.9;;;;;;;5.2;57.8;100340;;;;
2022/02/27 14:52:17;;;;;;;9.4;11.9;;;;;;;5.1;59;100350;;;;
2022/02/27 15:02:17;;;;;;;8.1;11.3;;;;;;;5;59.9;100350;;;;
2022/02/27 15:13:17;;;;;;;8.1;11.3;;;;;;;4.9;60.5;100340;;;;
2022/02/27 15:24:17;;;;;;;8.1;11.3;;;;;;;4.8;59.6;100340;;;;
2022/02/27 15:34:17;;;;;;;31.1;42.8;;;;;;;4.7;58.3;100330;;;;
2022/02/27 15:44:17;;;;;;;31.1;42.8;;;;;;;4.5;57.7;100340;;;;
2022/02/27 15:55:17;;;;;;;31.1;42.8;;;;;;;4.4;60.6;100340;;;;
2022/02/27 16:05:17;;;;;;;35.9;45.5;;;;;;;4.3;62.8;100330;;;;
2022/02/27 16:16:17;;;;;;;35.9;45.5;;;;;;;3.9;64.7;100350;;;;
2022/02/27 16:26:17;;;;;;;35.9;45.5;;;;;;;3.6;67.6;100360;;;;
2022/02/27 16:36:18;;;;;;;35.3;46.2;;;;;;;3.3;69.5;100360;;;;
2022/02/27 16:46:18;;;;;;;35.3;46.2;;;;;;;3.1;70.8;100360;;;;
2022/02/27 16:56:18;;;;;;;35.3;46.2;;;;;;;3;71.5;100370;;;;
2022/02/27 17:07:17;;;;;;;21.6;30.8;;;;;;;2.7;72.6;100400;;;;
2022/02/27 17:17:17;;;;;;;21.6;30.8;;;;;;;2.3;72.1;100410;;;;
2022/02/27 17:27:17;;;;;;;21.6;30.8;;;;;;;2;71.6;100400;;;;
2022/02/27 17:38:17;;;;;;;17.8;24.5;;;;;;;1.8;72.3;100390;;;;
2022/02/27 17:48:17;;;;;;;17.8;24.5;;;;;;;1.5;72.8;100390;;;;
2022/02/27 17:58:18;;;;;;;17.8;24.5;;;;;;;1.2;73.4;100400;;;;
2022/02/27 18:09:18;;;;;;;31.2;44.7;;;;;;;0.9;73.9;100400;;;;
2022/02/27 18:20:17;;;;;;;31.2;44.7;;;;;;;0.7;74.5;100400;;;;
2022/02/27 18:31:17;;;;;;;15.9;22.8;;;;;;;0.7;73.8;100410;;;;
2022/02/27 18:41:17;;;;;;;15.9;22.8;;;;;;;0.4;73.6;100400;;;;
2022/02/27 18:51:25;;;;;;;15.9;22.8;;;;;;;0.3;73.2;100380;;;;
2022/02/27 19:01:17;;;;;;;12.9;16.2;;;;;;;0.1;73.3;100380;;;;
2022/02/27 19:12:17;;;;;;;12.9;16.2;;;;;;;0;74;100380;;;;
2022/02/27 19:23:17;;;;;;;12.9;16.2;;;;;;;-0.2;74.5;100380;;;;
2022/02/27 19:33:18;;;;;;;36;46;;;;;;;-0.3;75.2;100370;;;;
2022/02/27 19:44:17;;;;;;;36;46;;;;;;;-0.4;75.5;100370;;;;
2022/02/27 19:54:18;;;;;;;36;46;;;;;;;-0.6;76.3;100370;;;;
2022/02/27 20:04:17;;;;;;;22.3;26.2;;;;;;;-0.8;76.2;100360;;;;
2022/02/27 20:14:18;;;;;;;22.3;26.2;;;;;;;-1;76.9;100360;;;;
2022/02/27 20:24:17;;;;;;;22.3;26.2;;;;;;;-1;78.6;100360;;;;
2022/02/27 20:34:18;;;;;;;21.5;25.2;;;;;;;-0.8;78.3;100360;;;;
2022/02/27 20:44:17;;;;;;;21.5;25.2;;;;;;;-0.5;77.7;100350;;;;
2022/02/27 20:54:18;;;;;;;21.5;25.2;;;;;;;-0.4;77.1;100340;;;;
2022/02/27 21:05:18;;;;;;;20.6;25.8;;;;;;;-0.3;77.1;100330;;;;
2022/02/27 21:15:18;;;;;;;20.6;25.8;;;;;;;-0.3;77.2;100320;;;;
2022/02/27 21:26:18;;;;;;;20.6;25.8;;;;;;;-0.3;76.8;100320;;;;
2022/02/27 21:37:18;;;;;;;29.2;37.1;;;;;;;-0.3;76.9;100310;;;;
2022/02/27 21:47:18;;;;;;;29.2;37.1;;;;;;;-0.4;76.4;100310;;;;
2022/02/27 21:58:18;;;;;;;29.2;37.1;;;;;;;-0.5;76.6;100300;;;;
2022/02/27 22:08:18;;;;;;;56.5;72.6;;;;;;;-0.4;76.8;100300;;;;
2022/02/27 22:18:18;;;;;;;56.5;72.6;;;;;;;-0.6;78;100300;;;;
2022/02/27 22:29:18;;;;;;;56.5;72.6;;;;;;;-0.6;78.1;100290;;;;
2022/02/27 22:39:18;;;;;;;30.5;37.3;;;;;;;-0.6;77.8;100280;;;;
2022/02/27 22:49:18;;;;;;;30.5;37.3;;;;;;;-0.6;77.5;100280;;;;
2022/02/27 23:00:18;;;;;;;21.2;25.4;;;;;;;-0.8;78;100270;;;;
2022/02/27 23:10:18;;;;;;;21.2;25.4;;;;;;;-1.1;77.9;100270;;;;
2022/02/27 23:21:18;;;;;;;21.2;25.4;;;;;;;-1.4;78.5;100260;;;;
2022/02/27 23:32:18;;;;;;;24.8;31.7;;;;;;;-1.7;78.4;100250;;;;
2022/02/27 23:43:18;;;;;;;24.8;31.7;;;;;;;-2;78.7;100250;;;;
2022/02/27 23:53:18;;;;;;;24.8;31.7;;;;;;;-2.2;78.8;100250;;;;
